Fv\men Brial — FVDB — position and weather

sailwx.info

Track history (hours):
 
Tides and Currents Weather Stations Pressure Air Temp Water Temp Dewpoint Dewpoint Depression Visibility Wind Speed Wind Dir Waves Ship Positions

Fv\men Brial

Last reported at 2017-Sep-21 00:42 UTC. Time now 2017-Sep-21 12:32 UTC.
Position N 47°30' W 004°51'.

Length 15 m.

Type: Fishing. MMSI: 228251000.

Date/timePositionNaut miles runAvg speedWind from/ knotsBaromVisibWave heightAir tempDewpointWater temp
2017-Sep-21 00:42N 47°30' W 004°51'6 2.8
2017-Sep-20 22:35N 47°25' W 004°55'0 2.9
2017-Sep-20 22:29N 47°24' W 004°55'3 2.6
2017-Sep-20 21:11N 47°23' W 004°51'9 2.2
2017-Sep-20 17:13N 47°32' W 004°47'2 0.6
2017-Sep-20 13:52N 47°30' W 004°49'1 1.9
2017-Sep-20 13:23N 47°29' W 004°49'5 2.2
2017-Sep-20 11:19N 47°27' W 004°43'1 2.6
2017-Sep-20 10:56N 47°27' W 004°42'1 2.6
2017-Sep-20 10:24N 47°27' W 004°40'1 2.3
2017-Sep-20 09:58N 47°28' W 004°39'1 2.6
2017-Sep-20 09:31N 47°29' W 004°38'24 5.4
2017-Sep-20 05:08N 47°48' W 004°17'0 1.8
2017-Sep-20 04:58N 47°47' W 004°17'3 6.5
2017-Sep-20 04:29N 47°46' W 004°21'12 7.8
2017-Sep-20 02:53N 47°38' W 004°35'15 7.8
2017-Sep-20 00:57N 47°28' W 004°53'  
Track history (hours):
 
Tides and Currents Weather Stations Pressure Air Temp Water Temp Dewpoint Dewpoint Depression Visibility Wind Speed Wind Dir Waves Ship Positions

Fv\men Brial

Last reported at 2017-Sep-21 00:42 UTC. Time now 2017-Sep-21 12:32 UTC.
Position N 47°30' W 004°51'.

Length 15 m.

Type: Fishing. MMSI: 228251000.

Date/timePositionNaut miles runAvg speedWind from/ knotsBaromVisibWave heightAir tempDewpointWater temp
2017-Sep-21 00:42N 47°30' W 004°51'6 2.8
2017-Sep-20 22:35N 47°25' W 004°55'0 2.9
2017-Sep-20 22:29N 47°24' W 004°55'3 2.6
2017-Sep-20 21:11N 47°23' W 004°51'9 2.2
2017-Sep-20 17:13N 47°32' W 004°47'2 0.6
2017-Sep-20 13:52N 47°30' W 004°49'1 1.9
2017-Sep-20 13:23N 47°29' W 004°49'5 2.2
2017-Sep-20 11:19N 47°27' W 004°43'1 2.6
2017-Sep-20 10:56N 47°27' W 004°42'1 2.6
2017-Sep-20 10:24N 47°27' W 004°40'1 2.3
2017-Sep-20 09:58N 47°28' W 004°39'1 2.6
2017-Sep-20 09:31N 47°29' W 004°38'24 5.4
2017-Sep-20 05:08N 47°48' W 004°17'0 1.8
2017-Sep-20 04:58N 47°47' W 004°17'3 6.5
2017-Sep-20 04:29N 47°46' W 004°21'12 7.8
2017-Sep-20 02:53N 47°38' W 004°35'15 7.8
2017-Sep-20 00:57N 47°28' W 004°53'  

Dump ship's entire track history